createdAt,value
2023-03-08T00:01:34.636Z,4.10
2023-03-08T00:11:39.513Z,4.10
2023-03-08T00:21:42.907Z,4.10
2023-03-08T00:31:47.866Z,4.10
2023-03-08T00:41:51.394Z,4.10
2023-03-08T00:51:56.234Z,4.10
2023-03-08T01:01:59.695Z,4.10
2023-03-08T01:12:05.076Z,4.10
2023-03-08T01:22:08.519Z,4.10
2023-03-08T01:32:13.877Z,4.10
2023-03-08T01:42:17.429Z,4.00
2023-03-08T01:52:25.120Z,3.80
2023-03-08T02:02:36.765Z,3.70
2023-03-08T02:12:42.601Z,3.60
2023-03-08T02:22:50.203Z,3.50
2023-03-08T02:32:53.783Z,3.20
2023-03-08T02:42:58.587Z,2.80
2023-03-08T02:53:02.022Z,2.80
2023-03-08T03:03:06.989Z,2.70
2023-03-08T03:13:10.570Z,2.60
2023-03-08T03:23:15.678Z,2.50
2023-03-08T03:33:25.840Z,2.30
2023-03-08T03:43:31.165Z,1.80
2023-03-08T03:53:36.809Z,1.50
2023-03-08T04:03:42.307Z,1.30
2023-03-08T04:13:47.054Z,1.10
2023-03-08T04:23:52.676Z,1.00
2023-03-08T04:33:58.307Z,1.70
2023-03-08T04:44:04.595Z,2.00
2023-03-08T04:54:13.669Z,2.20
2023-03-08T05:04:24.460Z,2.50
2023-03-08T05:14:29.241Z,2.70
2023-03-08T05:24:34.481Z,2.90
2023-03-08T05:34:43.284Z,2.90
2023-03-08T05:44:53.199Z,3.00
2023-03-08T05:55:02.691Z,3.10
2023-03-08T06:05:08.590Z,3.30
2023-03-08T06:15:13.577Z,3.50
2023-03-08T06:25:20.897Z,3.50
2023-03-08T06:35:25.740Z,3.70
2023-03-08T06:45:38.945Z,4.10
2023-03-08T06:55:43.312Z,4.50
2023-03-08T07:05:48.184Z,5.30
2023-03-08T07:15:52.092Z,5.80
2023-03-08T07:25:57.068Z,6.30
2023-03-08T07:36:02.731Z,5.80
2023-03-08T07:46:08.091Z,5.70
2023-03-08T07:56:11.695Z,11.70
2023-03-08T08:06:16.616Z,13.60
2023-03-08T08:16:20.213Z,16.20
2023-03-08T08:26:25.406Z,14.60
2023-03-08T08:36:29.477Z,12.30
2023-03-08T08:46:35.185Z,18.90
2023-03-08T08:56:42.862Z,22.10
2023-03-08T09:06:48.383Z,21.00
2023-03-08T09:16:52.643Z,23.90
2023-03-08T09:26:57.843Z,23.70
2023-03-08T09:37:01.634Z,26.00
2023-03-08T09:47:16.275Z,28.40
2023-03-08T09:57:25.823Z,28.60
2023-03-08T10:07:46.288Z,31.60
2023-03-08T10:17:54.806Z,32.30
2023-03-08T10:28:02.284Z,32.00
2023-03-08T10:38:06.917Z,30.20
2023-03-08T10:48:22.510Z,27.00
2023-03-08T10:58:34.889Z,21.30
2023-03-08T11:08:42.763Z,22.90
2023-03-08T11:19:00.214Z,23.80
2023-03-08T11:29:20.841Z,17.70
2023-03-08T11:39:31.323Z,15.10
2023-03-08T11:49:55.198Z,12.90
2023-03-08T12:00:11.665Z,11.40
2023-03-08T12:10:24.292Z,11.10
2023-03-08T12:20:35.600Z,10.30
2023-03-08T12:30:56.086Z,9.80
2023-03-08T12:40:59.561Z,10.40
2023-03-08T12:51:21.461Z,17.10
2023-03-08T13:01:36.258Z,20.60
2023-03-08T13:11:46.942Z,18.90
2023-03-08T13:21:58.611Z,18.20
2023-03-08T13:32:12.867Z,19.30
2023-03-08T13:42:16.657Z,17.00
2023-03-08T13:52:24.722Z,14.90
2023-03-08T14:02:30.616Z,13.20
2023-03-08T14:12:35.958Z,12.00
2023-03-08T14:22:40.998Z,11.10
2023-03-08T14:33:08.044Z,10.40
2023-03-08T14:43:20.099Z,9.90
2023-03-08T14:53:32.806Z,9.40
2023-03-08T15:03:36.648Z,9.10
2023-03-08T15:13:42.504Z,8.70
2023-03-08T15:23:47.784Z,8.30
2023-03-08T15:33:52.612Z,8.10
2023-03-08T15:43:56.110Z,7.70
2023-03-08T15:54:01.047Z,7.40
2023-03-08T16:04:04.559Z,6.90
2023-03-08T16:14:09.396Z,6.50
2023-03-08T16:24:13.271Z,6.20
2023-03-08T16:34:18.774Z,6.10
2023-03-08T16:44:26.983Z,5.90
2023-03-08T16:54:32.122Z,5.60
2023-03-08T17:04:35.562Z,5.60
2023-03-08T17:14:41.183Z,5.40
2023-03-08T17:24:44.675Z,5.30
2023-03-08T17:34:49.676Z,5.30
2023-03-08T17:44:53.093Z,5.20
2023-03-08T17:54:57.953Z,5.10
2023-03-08T18:05:01.859Z,4.80
2023-03-08T18:15:08.747Z,4.70
2023-03-08T18:25:12.447Z,4.70
2023-03-08T18:35:17.673Z,4.40
2023-03-08T18:45:21.090Z,4.20
2023-03-08T18:55:25.945Z,4.10
2023-03-08T19:05:29.444Z,3.90
2023-03-08T19:15:38.056Z,3.70
2023-03-08T19:25:55.503Z,3.60
2023-03-08T19:36:00.591Z,3.50
2023-03-08T19:46:04.641Z,3.40
2023-03-08T19:56:15.064Z,3.50
2023-03-08T20:06:26.565Z,3.70
2023-03-08T20:16:32.301Z,3.80
2023-03-08T20:26:38.159Z,3.80
2023-03-08T20:36:43.024Z,3.90
2023-03-08T20:46:46.419Z,4.00
2023-03-08T20:56:51.959Z,4.00
2023-03-08T21:06:55.681Z,4.20
2023-03-08T21:17:00.774Z,4.50
2023-03-08T21:27:04.287Z,4.40
2023-03-08T21:37:09.162Z,4.40
2023-03-08T21:47:12.729Z,4.30
2023-03-08T21:57:17.547Z,4.20
2023-03-08T22:07:21.023Z,4.20
2023-03-08T22:17:25.976Z,4.40
2023-03-08T22:27:29.430Z,4.40
2023-03-08T22:37:34.395Z,4.90
2023-03-08T22:47:37.841Z,5.30
2023-03-08T22:57:42.601Z,6.00
2023-03-08T23:07:46.465Z,6.30
2023-03-08T23:17:51.329Z,6.40
2023-03-08T23:27:55.245Z,6.40
2023-03-08T23:38:00.111Z,6.50
2023-03-08T23:48:03.696Z,6.50
2023-03-08T23:58:09.325Z,6.60
